createdAt,value
2018-11-05T00:00:27.692Z,127.93
2018-11-05T00:02:55.690Z,127.63
2018-11-05T00:05:23.759Z,131.67
2018-11-05T00:07:51.811Z,132.33
2018-11-05T00:10:19.826Z,135.53
2018-11-05T00:12:47.781Z,137.00
2018-11-05T00:15:15.716Z,126.57
2018-11-05T00:17:43.783Z,111.13
2018-11-05T00:20:11.972Z,104.67
2018-11-05T00:22:39.921Z,117.53
2018-11-05T00:25:08.603Z,112.30
2018-11-05T00:27:36.570Z,123.97
2018-11-05T00:30:04.983Z,110.70
2018-11-05T00:32:33.191Z,113.63
2018-11-05T00:35:01.129Z,133.20
2018-11-05T00:37:29.092Z,114.33
2018-11-05T00:39:57.010Z,112.67
2018-11-05T00:42:24.919Z,105.30
2018-11-05T00:44:52.883Z,106.17
2018-11-05T00:47:20.985Z,97.30
2018-11-05T00:49:49.307Z,119.43
2018-11-05T00:52:17.500Z,113.13
2018-11-05T00:54:46.469Z,113.03
2018-11-05T00:57:14.472Z,104.13
2018-11-05T00:59:42.447Z,101.73
2018-11-05T01:02:11.060Z,109.90
2018-11-05T01:04:38.973Z,109.17
2018-11-05T01:07:06.926Z,100.00
2018-11-05T01:09:35.736Z,92.43
2018-11-05T01:12:03.827Z,89.90
2018-11-05T01:14:31.754Z,107.00
2018-11-05T01:16:59.702Z,91.07
2018-11-05T01:19:27.620Z,109.63
2018-11-05T01:21:55.588Z,92.77
2018-11-05T01:24:23.548Z,100.27
2018-11-05T01:26:51.567Z,87.20
2018-11-05T01:29:19.529Z,104.33
2018-11-05T01:31:47.473Z,98.67
2018-11-05T01:34:15.522Z,88.33
2018-11-05T01:36:43.521Z,99.53
2018-11-05T01:39:11.539Z,91.90
2018-11-05T01:41:39.453Z,85.33
2018-11-05T01:44:07.462Z,84.17
2018-11-05T01:46:35.418Z,81.70
2018-11-05T01:49:03.458Z,91.93
2018-11-05T01:51:31.474Z,80.50
2018-11-05T01:53:59.486Z,76.97
2018-11-05T01:56:27.534Z,73.43
2018-11-05T01:58:55.475Z,71.87
2018-11-05T02:01:23.420Z,78.27
2018-11-05T02:03:51.408Z,79.50
2018-11-05T02:06:19.372Z,86.23
2018-11-05T02:08:47.297Z,80.57
2018-11-05T02:11:15.228Z,85.10
2018-11-05T02:13:43.157Z,68.10
2018-11-05T02:16:11.179Z,88.33
2018-11-05T02:18:39.022Z,69.27
2018-11-05T02:21:06.954Z,76.27
2018-11-05T02:23:34.866Z,68.73
2018-11-05T02:26:02.855Z,80.23
2018-11-05T02:28:30.766Z,73.80
2018-11-05T02:30:58.674Z,76.13
2018-11-05T02:33:26.640Z,83.87
2018-11-05T02:35:54.569Z,91.07
2018-11-05T02:38:22.487Z,77.47
2018-11-05T02:40:50.414Z,84.70
2018-11-05T02:43:18.316Z,79.90
2018-11-05T02:45:46.252Z,88.83
2018-11-05T02:48:14.184Z,70.13
2018-11-05T02:50:42.119Z,76.07
2018-11-05T02:53:10.051Z,73.40
2018-11-05T02:55:37.994Z,75.30
2018-11-05T02:58:05.970Z,69.20
2018-11-05T03:00:34.212Z,70.73
2018-11-05T03:03:02.181Z,72.57
2018-11-05T03:05:30.069Z,69.20
2018-11-05T03:07:57.974Z,58.20
2018-11-05T03:10:25.860Z,76.40
2018-11-05T03:12:53.822Z,66.97
2018-11-05T03:15:21.751Z,74.00
2018-11-05T03:17:49.697Z,68.73
2018-11-05T03:20:17.652Z,65.93
2018-11-05T03:22:45.774Z,65.77
2018-11-05T03:25:13.756Z,63.73
2018-11-05T03:27:41.825Z,61.10
2018-11-05T03:30:11.851Z,63.77
2018-11-05T03:32:39.822Z,54.80
2018-11-05T03:35:08.945Z,65.93
2018-11-05T03:37:36.862Z,57.10
2018-11-05T03:40:04.856Z,56.57
2018-11-05T03:42:32.801Z,62.30
2018-11-05T03:45:00.732Z,54.53
2018-11-05T03:47:28.837Z,66.20
2018-11-05T03:49:57.561Z,52.17
2018-11-05T03:52:25.533Z,68.97
2018-11-05T03:54:53.521Z,57.10
2018-11-05T03:57:21.472Z,59.47
2018-11-05T03:59:49.451Z,59.17
2018-11-05T04:02:17.439Z,55.73
2018-11-05T04:04:45.395Z,57.67
2018-11-05T04:07:13.302Z,64.23
2018-11-05T04:09:41.214Z,58.97
2018-11-05T04:12:09.163Z,74.00
2018-11-05T04:14:37.090Z,70.67
2018-11-05T04:17:05.410Z,62.07
2018-11-05T04:19:33.366Z,67.57
2018-11-05T04:22:01.319Z,73.60
2018-11-05T04:24:29.210Z,68.17
2018-11-05T04:26:58.301Z,73.40
2018-11-05T04:29:26.328Z,75.57
2018-11-05T04:31:54.250Z,71.43
2018-11-05T04:34:22.163Z,70.53
2018-11-05T04:36:50.095Z,83.00
2018-11-05T04:39:18.020Z,94.43
2018-11-05T04:41:46.032Z,81.83
2018-11-05T04:44:13.961Z,86.73
2018-11-05T04:46:41.905Z,107.83
2018-11-05T04:49:11.715Z,83.40
2018-11-05T04:51:39.637Z,96.20
2018-11-05T04:54:07.652Z,77.63
2018-11-05T04:56:35.760Z,71.50
2018-11-05T04:59:03.824Z,87.77
2018-11-05T05:01:31.911Z,88.13
2018-11-05T05:04:00.145Z,87.93
2018-11-05T05:06:28.052Z,84.50
2018-11-05T05:08:56.029Z,70.37
2018-11-05T05:11:23.959Z,72.37
2018-11-05T05:13:52.241Z,72.23
2018-11-05T05:16:20.261Z,66.07
2018-11-05T05:18:48.110Z,67.80
2018-11-05T05:21:16.066Z,66.23
2018-11-05T05:23:44.036Z,69.60
2018-11-05T05:26:11.975Z,68.30
2018-11-05T05:28:39.938Z,67.40
2018-11-05T05:31:07.928Z,66.07
2018-11-05T05:33:36.222Z,71.83
2018-11-05T05:36:04.387Z,67.37
2018-11-05T05:38:32.323Z,63.17
2018-11-05T05:41:00.290Z,62.20
2018-11-05T05:43:28.216Z,57.63
2018-11-05T05:45:56.129Z,72.10
2018-11-05T05:48:24.187Z,65.33
2018-11-05T05:50:52.897Z,64.13
2018-11-05T05:53:20.850Z,73.87
2018-11-05T05:55:48.819Z,72.63
2018-11-05T05:58:17.438Z,70.70
2018-11-05T06:00:45.450Z,62.30
2018-11-05T06:03:13.380Z,79.10
2018-11-05T06:05:41.443Z,65.67
2018-11-05T06:08:09.362Z,73.70
2018-11-05T06:10:37.332Z,62.03
2018-11-05T06:13:05.331Z,67.97
2018-11-05T06:15:34.157Z,74.83
2018-11-05T06:18:02.111Z,68.63
2018-11-05T06:20:30.072Z,61.60
2018-11-05T06:22:58.399Z,58.97
2018-11-05T06:25:26.456Z,56.40
2018-11-05T06:27:54.418Z,57.23
2018-11-05T06:30:22.551Z,59.60
2018-11-05T06:32:51.435Z,58.60
2018-11-05T06:35:19.993Z,66.00
2018-11-05T06:37:47.984Z,62.27
2018-11-05T06:40:17.144Z,62.77
2018-11-05T06:42:45.354Z,58.93
2018-11-05T06:51:21.394Z,56.07
2018-11-05T06:53:49.732Z,52.60
2018-11-05T06:56:18.723Z,48.50
2018-11-05T06:58:46.684Z,44.23
2018-11-05T07:01:14.629Z,44.27
2018-11-05T07:03:42.621Z,47.10
2018-11-05T07:06:10.549Z,52.40
2018-11-05T07:08:38.665Z,40.60
2018-11-05T07:11:06.577Z,44.63
2018-11-05T07:13:35.278Z,36.90
2018-11-05T07:16:03.261Z,36.70
2018-11-05T07:18:31.223Z,36.50
2018-11-05T07:20:59.194Z,38.50
2018-11-05T07:23:27.082Z,39.67
2018-11-05T07:25:55.813Z,39.23
2018-11-05T07:28:24.570Z,42.10
2018-11-05T07:30:52.642Z,42.70
2018-11-05T07:33:20.618Z,36.57
2018-11-05T07:35:48.581Z,36.60
2018-11-05T07:38:16.503Z,32.50
2018-11-05T07:40:44.455Z,33.83
2018-11-05T07:43:12.469Z,33.70
2018-11-05T07:45:40.387Z,33.77
2018-11-05T07:48:08.329Z,37.40
2018-11-05T07:50:36.294Z,31.90
2018-11-05T07:53:04.557Z,35.60
2018-11-05T07:55:32.494Z,32.93
2018-11-05T07:58:00.486Z,35.83
2018-11-05T08:00:34.024Z,29.80
2018-11-05T08:03:02.091Z,47.43
2018-11-05T08:05:29.990Z,33.93
2018-11-05T08:07:57.931Z,33.80
2018-11-05T08:10:26.636Z,34.47
2018-11-05T08:12:56.934Z,35.17
2018-11-05T08:15:26.628Z,34.10
2018-11-05T08:17:54.895Z,30.43
2018-11-05T08:20:23.958Z,31.30
2018-11-05T08:22:53.849Z,33.30
2018-11-05T08:25:21.830Z,32.63
2018-11-05T08:27:49.751Z,34.03
2018-11-05T08:30:20.253Z,35.80
2018-11-05T08:32:48.321Z,33.50
2018-11-05T08:35:16.297Z,25.87
2018-11-05T08:37:45.923Z,28.70
2018-11-05T08:40:15.685Z,27.73
2018-11-05T08:42:44.724Z,25.77
2018-11-05T08:45:13.849Z,31.30
2018-11-05T08:47:41.981Z,30.00
2018-11-05T08:50:12.597Z,26.13
2018-11-05T08:52:40.564Z,30.47
2018-11-05T08:55:10.109Z,30.97
2018-11-05T08:57:38.267Z,28.30
2018-11-05T09:00:10.336Z,24.13
2018-11-05T09:02:38.275Z,26.23
2018-11-05T09:05:06.309Z,26.03
2018-11-05T09:07:34.220Z,26.77
2018-11-05T09:10:03.096Z,26.70
2018-11-05T09:12:30.880Z,27.37
2018-11-05T09:14:59.529Z,25.20
2018-11-05T09:17:27.480Z,29.03
2018-11-05T09:19:55.391Z,26.67
2018-11-05T09:22:23.307Z,24.70
2018-11-05T09:24:51.258Z,27.23
2018-11-05T09:27:19.515Z,28.47
2018-11-05T09:29:47.466Z,29.10
2018-11-05T09:32:15.466Z,25.67
2018-11-05T09:34:43.556Z,25.47
2018-11-05T09:37:11.831Z,27.47
2018-11-05T09:39:39.828Z,21.40
2018-11-05T09:42:07.831Z,29.17
2018-11-05T09:44:35.767Z,23.57
2018-11-05T09:47:03.735Z,23.50
2018-11-05T09:49:32.043Z,23.00
2018-11-05T09:51:59.971Z,23.13
2018-11-05T09:54:28.131Z,21.77
2018-11-05T09:56:56.869Z,19.83
2018-11-05T09:59:24.823Z,25.13
2018-11-05T10:01:52.836Z,23.00
2018-11-05T10:04:20.869Z,22.60
2018-11-05T10:06:48.987Z,25.30
2018-11-05T10:09:17.062Z,23.23
2018-11-05T10:11:45.101Z,22.93
2018-11-05T10:14:13.084Z,25.10
2018-11-05T10:16:41.043Z,27.07
2018-11-05T10:19:08.996Z,22.53
2018-11-05T10:21:36.999Z,29.10
2018-11-05T10:24:04.975Z,26.53
2018-11-05T10:26:32.896Z,21.73
2018-11-05T10:29:01.119Z,16.97
2018-11-05T10:31:29.064Z,20.63
2018-11-05T10:33:56.985Z,21.90
2018-11-05T10:36:24.995Z,22.73
2018-11-05T10:38:52.959Z,23.37
2018-11-05T10:41:20.945Z,24.70
2018-11-05T10:43:48.992Z,21.83
2018-11-05T10:46:17.059Z,22.47
2018-11-05T10:48:44.903Z,26.53
2018-11-05T10:51:13.705Z,21.67
2018-11-05T10:53:41.619Z,22.00
2018-11-05T10:56:09.604Z,23.70
2018-11-05T10:58:37.995Z,22.10
2018-11-05T11:01:11.417Z,22.40
2018-11-05T11:03:39.516Z,23.23
2018-11-05T11:06:09.183Z,22.87
2018-11-05T11:08:37.134Z,27.10
2018-11-05T11:11:05.132Z,21.50
2018-11-05T11:13:33.051Z,23.07
2018-11-05T11:16:01.025Z,21.17
2018-11-05T11:18:29.403Z,27.50
2018-11-05T11:20:57.326Z,23.57
2018-11-05T11:23:25.238Z,23.13
2018-11-05T11:25:53.182Z,25.17
2018-11-05T11:28:21.222Z,28.23
2018-11-05T11:30:49.403Z,21.60
2018-11-05T11:33:17.374Z,22.50
2018-11-05T11:35:45.318Z,22.97
2018-11-05T11:38:13.254Z,23.30
2018-11-05T11:40:41.184Z,23.90
2018-11-05T11:43:09.742Z,23.53
2018-11-05T11:45:38.333Z,25.57
2018-11-05T11:48:06.364Z,25.60
2018-11-05T11:50:34.351Z,25.20
2018-11-05T11:53:02.303Z,27.17
2018-11-05T11:55:30.288Z,31.40
2018-11-05T11:57:58.252Z,26.10
2018-11-05T12:00:26.427Z,31.13
2018-11-05T12:02:54.642Z,25.37
2018-11-05T12:05:22.763Z,32.13
2018-11-05T12:07:51.508Z,31.50
2018-11-05T12:10:21.673Z,29.40
2018-11-05T12:12:50.487Z,32.10
2018-11-05T12:15:19.314Z,32.03
2018-11-05T12:17:48.404Z,30.80
2018-11-05T12:20:17.963Z,31.87
2018-11-05T12:22:46.591Z,34.03
2018-11-05T12:25:14.533Z,33.50
2018-11-05T12:27:42.495Z,33.57
2018-11-05T12:30:11.726Z,36.30
2018-11-05T12:32:39.683Z,35.83
2018-11-05T12:35:09.449Z,35.57
2018-11-05T12:37:37.378Z,34.97
2018-11-05T12:40:06.118Z,38.10
2018-11-05T12:42:34.140Z,35.03
2018-11-05T12:45:02.224Z,37.13
2018-11-05T12:47:30.228Z,35.13
2018-11-05T12:49:58.202Z,36.07
2018-11-05T12:52:26.263Z,33.67
2018-11-05T12:54:54.224Z,33.30
2018-11-05T12:57:22.430Z,35.60
2018-11-05T12:59:51.260Z,35.13
2018-11-05T13:02:23.700Z,36.30
2018-11-05T13:04:51.858Z,34.10
2018-11-05T13:07:19.879Z,37.10
2018-11-05T13:09:48.411Z,40.10
2018-11-05T13:12:16.731Z,42.57
2018-11-05T13:14:45.033Z,34.93
2018-11-05T13:17:12.986Z,38.37
2018-11-05T13:19:40.920Z,42.67
2018-11-05T13:22:08.866Z,40.27
2018-11-05T13:24:36.818Z,41.10
2018-11-05T13:27:05.157Z,39.30
2018-11-05T13:29:33.147Z,38.53
2018-11-05T13:32:01.084Z,40.77
2018-11-05T13:34:29.075Z,42.00
2018-11-05T13:36:57.320Z,40.63
2018-11-05T13:39:25.136Z,39.70
2018-11-05T13:41:53.079Z,40.47
2018-11-05T13:44:21.055Z,45.30
2018-11-05T13:46:49.319Z,40.03
2018-11-05T13:49:17.262Z,57.87
2018-11-05T13:51:45.067Z,44.00
2018-11-05T13:54:13.094Z,47.57
2018-11-05T13:56:41.996Z,49.77
2018-11-05T13:59:10.258Z,46.80
2018-11-05T14:01:38.886Z,48.97
2018-11-05T14:04:06.976Z,50.70
2018-11-05T14:06:35.248Z,47.17
2018-11-05T14:09:04.015Z,50.33
2018-11-05T14:11:31.990Z,47.63
2018-11-05T14:14:00.032Z,48.83
2018-11-05T14:16:28.055Z,51.87
2018-11-05T14:18:56.024Z,54.03
2018-11-05T14:21:23.980Z,58.67
2018-11-05T14:23:53.239Z,46.90
2018-11-05T14:26:22.013Z,54.73
2018-11-05T14:28:50.472Z,55.00
2018-11-05T14:31:18.706Z,49.70
2018-11-05T14:33:46.701Z,51.33
2018-11-05T14:36:14.659Z,53.87
2018-11-05T14:38:43.441Z,48.53
2018-11-05T14:41:11.844Z,50.90
2018-11-05T14:43:40.837Z,52.47
2018-11-05T14:46:09.227Z,54.37
2018-11-05T14:48:37.223Z,63.87
2018-11-05T14:51:05.191Z,60.90
2018-11-05T14:53:33.220Z,58.20
2018-11-05T14:56:01.573Z,55.63
2018-11-05T14:58:29.560Z,56.83
2018-11-05T15:00:57.915Z,54.17
2018-11-05T15:03:25.860Z,60.37
2018-11-05T15:05:53.811Z,60.60
2018-11-05T15:08:21.791Z,53.73
2018-11-05T15:10:49.763Z,60.60
2018-11-05T15:13:17.790Z,61.20
2018-11-05T15:15:45.742Z,57.50
2018-11-05T15:18:14.920Z,56.30
2018-11-05T15:20:43.121Z,64.70
2018-11-05T15:23:11.070Z,67.03
2018-11-05T15:25:39.395Z,61.33
2018-11-05T15:28:07.327Z,60.07
2018-11-05T15:30:35.271Z,64.73
2018-11-05T15:33:04.251Z,60.17
2018-11-05T15:35:32.510Z,67.43
2018-11-05T15:38:00.539Z,55.30
2018-11-05T15:40:29.395Z,55.27
2018-11-05T15:42:57.341Z,55.40
2018-11-05T15:45:26.059Z,60.77
2018-11-05T15:47:54.082Z,65.97
2018-11-05T15:50:22.147Z,74.17
2018-11-05T15:52:50.658Z,54.93
2018-11-05T15:55:19.358Z,65.53
2018-11-05T15:57:47.304Z,64.80
2018-11-05T16:00:22.394Z,61.87
2018-11-05T16:02:57.988Z,62.70
2018-11-05T16:05:25.971Z,66.03
2018-11-05T16:07:54.000Z,64.53
2018-11-05T16:10:22.527Z,60.63
2018-11-05T16:12:50.620Z,62.57
2018-11-05T16:15:18.618Z,69.10
2018-11-05T16:17:46.594Z,70.13
2018-11-05T16:20:17.699Z,67.70
2018-11-05T16:22:46.276Z,58.53
2018-11-05T16:25:14.259Z,67.80
2018-11-05T16:27:42.656Z,61.23
2018-11-05T16:30:11.836Z,68.10
2018-11-05T16:32:40.004Z,63.50
2018-11-05T16:35:08.395Z,68.43
2018-11-05T16:37:36.579Z,63.07
2018-11-05T16:40:05.417Z,69.07
2018-11-05T16:42:33.405Z,68.63
2018-11-05T16:45:01.386Z,63.10
2018-11-05T16:47:29.703Z,65.03
2018-11-05T16:49:57.671Z,74.00
2018-11-05T16:52:26.607Z,72.17
2018-11-05T16:54:54.582Z,76.63
2018-11-05T16:57:22.619Z,77.57
2018-11-05T16:59:50.551Z,72.33
2018-11-05T17:02:18.985Z,73.70
2018-11-05T17:04:48.212Z,78.23
2018-11-05T17:07:16.157Z,81.73
2018-11-05T17:09:44.175Z,77.33
2018-11-05T17:12:12.252Z,84.10
2018-11-05T17:14:40.183Z,72.90
2018-11-05T17:17:08.518Z,71.03
2018-11-05T17:19:36.496Z,73.60
2018-11-05T17:22:04.814Z,73.60
2018-11-05T17:24:32.818Z,67.20
2018-11-05T17:27:00.863Z,69.73
2018-11-05T17:29:28.981Z,70.53
2018-11-05T17:31:56.981Z,73.17
2018-11-05T17:34:25.350Z,73.13
2018-11-05T17:36:53.413Z,81.03
2018-11-05T17:39:21.467Z,82.67
2018-11-05T17:41:50.088Z,78.47
2018-11-05T17:44:18.070Z,77.30
2018-11-05T17:46:46.084Z,86.47
2018-11-05T17:49:18.475Z,74.07
2018-11-05T17:51:46.572Z,79.23
2018-11-05T17:54:14.539Z,80.93
2018-11-05T17:56:42.630Z,82.53
2018-11-05T17:59:10.662Z,75.10
2018-11-05T18:01:38.785Z,83.70
2018-11-05T18:04:06.934Z,79.07
2018-11-05T18:06:38.583Z,81.80
2018-11-05T18:09:07.603Z,86.03
2018-11-05T18:11:35.638Z,79.33
2018-11-05T18:14:03.735Z,83.30
2018-11-05T18:16:31.731Z,79.03
2018-11-05T18:18:59.814Z,76.27
2018-11-05T18:21:27.741Z,90.73
2018-11-05T18:23:55.792Z,89.40
2018-11-05T18:26:23.858Z,92.63
2018-11-05T18:28:51.899Z,91.43
2018-11-05T18:31:20.292Z,92.60
2018-11-05T18:33:48.241Z,81.23
2018-11-05T18:36:16.248Z,97.27
2018-11-05T18:38:44.236Z,83.13
2018-11-05T18:41:12.206Z,97.37
2018-11-05T18:43:41.193Z,90.37
2018-11-05T18:46:09.461Z,96.07
2018-11-05T18:48:37.464Z,100.77
2018-11-05T18:51:05.466Z,104.80
2018-11-05T18:53:33.488Z,100.73
2018-11-05T18:56:01.478Z,97.47
2018-11-05T18:58:29.460Z,81.97
2018-11-05T19:00:57.707Z,89.30
2018-11-05T19:03:25.778Z,88.33
2018-11-05T19:05:54.407Z,84.13
2018-11-05T19:08:22.401Z,81.70
2018-11-05T19:10:50.459Z,79.50
2018-11-05T19:13:18.508Z,90.57
2018-11-05T19:15:47.122Z,84.53
2018-11-05T19:18:15.087Z,73.47
2018-11-05T19:20:43.628Z,84.63
2018-11-05T19:23:11.808Z,82.23
2018-11-05T19:25:40.043Z,77.73
2018-11-05T19:28:08.031Z,81.47
2018-11-05T19:30:36.103Z,87.07
2018-11-05T19:33:04.084Z,87.13
2018-11-05T19:35:32.104Z,76.23
2018-11-05T19:38:00.336Z,83.93
2018-11-05T19:40:28.334Z,82.40
2018-11-05T19:42:56.330Z,90.90
2018-11-05T19:45:24.372Z,81.73
2018-11-05T19:47:52.307Z,86.93
2018-11-05T19:50:21.747Z,79.70
2018-11-05T19:52:50.075Z,84.07
2018-11-05T19:55:18.704Z,89.87
2018-11-05T19:57:47.951Z,92.17
2018-11-05T20:00:17.891Z,96.63
2018-11-05T20:02:46.300Z,97.63
2018-11-05T20:05:14.954Z,84.93
2018-11-05T20:07:44.611Z,83.87
2018-11-05T20:10:12.991Z,95.23
2018-11-05T20:12:41.821Z,113.53
2018-11-05T20:15:10.252Z,90.97
2018-11-05T20:17:39.631Z,91.33
2018-11-05T20:20:09.349Z,99.97
2018-11-05T20:22:37.387Z,92.90
2018-11-05T20:25:05.883Z,87.40
2018-11-05T20:27:33.875Z,86.97
2018-11-05T20:30:01.791Z,84.67
2018-11-05T20:32:30.125Z,84.90
2018-11-05T20:34:58.899Z,81.27
2018-11-05T20:37:27.060Z,83.43
2018-11-05T20:39:55.205Z,85.37
2018-11-05T20:42:23.078Z,97.20
2018-11-05T20:44:51.247Z,91.93
2018-11-05T20:47:19.194Z,91.33
2018-11-05T20:49:48.651Z,80.67
2018-11-05T20:52:16.984Z,82.10
2018-11-05T20:54:44.923Z,90.03
2018-11-05T20:57:12.892Z,85.17
2018-11-05T20:59:41.604Z,84.93
2018-11-05T21:02:09.567Z,77.00
2018-11-05T21:04:37.498Z,87.47
2018-11-05T21:07:05.454Z,91.50
2018-11-05T21:09:33.413Z,82.27
2018-11-05T21:12:01.424Z,96.07
2018-11-05T21:14:29.504Z,87.07
2018-11-05T21:16:57.462Z,88.30
2018-11-05T21:19:26.377Z,99.73
2018-11-05T21:21:54.504Z,103.97
2018-11-05T21:24:22.947Z,103.37
2018-11-05T21:26:51.810Z,88.70
2018-11-05T21:29:19.710Z,88.43
2018-11-05T21:31:47.612Z,87.50
2018-11-05T21:34:15.911Z,91.77
2018-11-05T21:36:43.865Z,90.10
2018-11-05T21:39:12.543Z,106.63
2018-11-05T21:41:40.604Z,102.37
2018-11-05T21:44:10.390Z,101.40
2018-11-05T21:46:39.368Z,108.33
2018-11-05T21:49:08.181Z,112.63
2018-11-05T21:51:36.197Z,96.10
2018-11-05T21:54:04.347Z,107.40
2018-11-05T21:56:33.208Z,116.70
2018-11-05T21:59:01.175Z,118.03
2018-11-05T22:01:29.136Z,110.40
2018-11-05T22:03:57.154Z,102.60
2018-11-05T22:06:25.456Z,97.10
2018-11-05T22:08:53.605Z,106.00
2018-11-05T22:11:21.590Z,117.03
2018-11-05T22:13:49.729Z,104.90
2018-11-05T22:16:17.775Z,103.63
2018-11-05T22:18:45.721Z,97.20
2018-11-05T22:21:13.807Z,107.63
2018-11-05T22:23:42.593Z,104.87
2018-11-05T22:26:11.262Z,99.03
2018-11-05T22:28:39.222Z,103.57
2018-11-05T22:31:07.215Z,107.50
2018-11-05T22:33:35.264Z,98.83
2018-11-05T22:36:03.294Z,88.90
2018-11-05T22:38:31.283Z,92.33
2018-11-05T22:41:00.242Z,87.20
2018-11-05T22:43:28.461Z,91.73
2018-11-05T22:45:56.450Z,95.60
2018-11-05T22:48:24.426Z,90.43
2018-11-05T22:50:52.374Z,90.83
2018-11-05T22:53:20.299Z,84.57
2018-11-05T22:55:48.254Z,84.33
2018-11-05T22:58:16.229Z,90.57
2018-11-05T23:00:49.720Z,92.20
2018-11-05T23:03:23.120Z,100.27
2018-11-05T23:05:51.042Z,103.57
2018-11-05T23:08:18.974Z,100.60
2018-11-05T23:10:46.976Z,113.00
2018-11-05T23:13:15.317Z,103.10
2018-11-05T23:15:43.831Z,102.77
2018-11-05T23:18:11.835Z,92.03
2018-11-05T23:20:39.803Z,87.73
2018-11-05T23:23:07.753Z,92.83
2018-11-05T23:25:35.710Z,105.43
2018-11-05T23:28:03.667Z,94.43
2018-11-05T23:30:31.585Z,96.20
2018-11-05T23:32:59.532Z,88.20
2018-11-05T23:35:28.435Z,99.20
2018-11-05T23:37:58.161Z,97.47
2018-11-05T23:40:35.304Z,95.23
2018-11-05T23:43:08.900Z,100.27
2018-11-05T23:45:51.640Z,121.43
2018-11-05T23:48:33.840Z,99.33
2018-11-05T23:51:09.386Z,109.50
2018-11-05T23:53:38.077Z,111.60
2018-11-05T23:56:06.410Z,109.03
2018-11-05T23:58:35.288Z,92.83
